createdAt,value
2024-01-12T00:01:43.974Z,103298.47
2024-01-12T00:03:17.019Z,103301.25
2024-01-12T00:04:23.749Z,103294.59
2024-01-12T00:05:43.524Z,103295.81
2024-01-12T00:06:48.243Z,103292.59
2024-01-12T00:07:46.453Z,103287.69
2024-01-12T00:08:37.702Z,103283.81
2024-01-12T00:09:38.464Z,103287.19
2024-01-12T00:10:56.003Z,103287.16
2024-01-12T00:11:52.027Z,103287.09
2024-01-12T00:14:05.204Z,103288.94
2024-01-12T00:15:00.346Z,103286.75
2024-01-12T00:16:34.927Z,103279.06
2024-01-12T00:18:49.413Z,103278.00
2024-01-12T00:20:02.732Z,103281.25
2024-01-12T00:20:58.815Z,103275.94
2024-01-12T00:21:56.769Z,103278.91
2024-01-12T00:24:44.294Z,103279.41
2024-01-12T00:25:51.202Z,103281.25
2024-01-12T00:27:26.547Z,103289.03
2024-01-12T00:30:05.455Z,103296.63
2024-01-12T00:31:04.567Z,103303.22
2024-01-12T00:32:26.331Z,103304.91
2024-01-12T00:33:57.469Z,103299.50
2024-01-12T00:34:51.595Z,103297.81
2024-01-12T00:36:47.162Z,103300.75
2024-01-12T00:37:35.680Z,103301.69
2024-01-12T00:38:55.275Z,103307.78
2024-01-12T00:39:57.188Z,103310.97
2024-01-12T00:41:18.469Z,103310.72
2024-01-12T00:43:04.179Z,103304.31
2024-01-12T00:45:35.324Z,103302.31
2024-01-12T00:46:58.737Z,103305.31
2024-01-12T00:49:00.105Z,103303.72
2024-01-12T00:50:11.857Z,103309.69
2024-01-12T00:52:15.287Z,103301.38
2024-01-12T00:54:15.908Z,103315.16
2024-01-12T00:56:53.472Z,103315.59
2024-01-12T00:58:59.287Z,103311.81
2024-01-12T00:59:55.516Z,103306.94
2024-01-12T01:00:57.013Z,103316.47
2024-01-12T01:02:13.802Z,103315.13
2024-01-12T01:03:34.411Z,103323.34
2024-01-12T01:04:38.006Z,103316.72
2024-01-12T01:05:21.440Z,103322.13
2024-01-12T01:06:46.332Z,103323.66
2024-01-12T01:07:36.984Z,103314.53
2024-01-12T01:10:19.729Z,103325.34
2024-01-12T01:12:06.658Z,103323.53
2024-01-12T01:17:29.548Z,103316.28
2024-01-12T01:18:28.325Z,103315.84
2024-01-12T01:19:52.617Z,103309.63
2024-01-12T01:20:36.083Z,103305.72
2024-01-12T01:23:18.202Z,103301.84
2024-01-12T01:24:29.416Z,103298.31
2024-01-12T01:25:39.497Z,103305.06
2024-01-12T01:26:18.817Z,103305.22
2024-01-12T01:27:02.543Z,103296.72
2024-01-12T01:28:09.236Z,103300.00
2024-01-12T01:29:06.500Z,103302.88
2024-01-12T01:30:16.942Z,103298.94
2024-01-12T01:32:00.876Z,103305.00
2024-01-12T01:34:12.170Z,103298.25
2024-01-12T01:35:13.057Z,103298.81
2024-01-12T01:36:17.770Z,103292.56
2024-01-12T01:37:09.918Z,103297.97
2024-01-12T01:38:14.970Z,103301.47
2024-01-12T01:39:08.902Z,103303.53
2024-01-12T01:40:23.272Z,103307.09
2024-01-12T01:41:04.254Z,103297.88
2024-01-12T01:42:21.902Z,103300.09
2024-01-12T01:43:48.893Z,103299.06
2024-01-12T01:45:06.623Z,103304.91
2024-01-12T01:46:49.368Z,103308.94
2024-01-12T01:48:50.437Z,103309.09
2024-01-12T01:51:25.950Z,103304.31
2024-01-12T01:52:35.117Z,103308.44
2024-01-12T01:54:01.525Z,103307.84
2024-01-12T01:54:58.627Z,103312.25
2024-01-12T01:57:00.255Z,103303.72
2024-01-12T01:59:03.450Z,103297.63
2024-01-12T01:59:53.224Z,103296.19
2024-01-12T02:01:03.657Z,103303.88
2024-01-12T02:02:42.086Z,103294.56
2024-01-12T02:04:59.646Z,103299.78
2024-01-12T02:06:01.829Z,103298.63
2024-01-12T02:06:57.811Z,103298.81
2024-01-12T02:08:25.887Z,103290.16
2024-01-12T02:09:30.228Z,103298.84
2024-01-12T02:10:28.916Z,103291.84
2024-01-12T02:12:05.285Z,103288.78
2024-01-12T02:13:07.949Z,103286.63
2024-01-12T02:14:30.056Z,103293.09
2024-01-12T02:15:46.372Z,103294.41
2024-01-12T02:16:57.381Z,103293.41
2024-01-12T02:18:08.824Z,103300.94
2024-01-12T02:22:03.635Z,103293.88
2024-01-12T02:23:01.424Z,103290.16
2024-01-12T02:23:43.421Z,103287.84
2024-01-12T02:25:09.983Z,103294.09
2024-01-12T02:25:55.393Z,103293.09
2024-01-12T02:26:27.775Z,103297.13
2024-01-12T02:26:59.361Z,103296.28
2024-01-12T02:27:31.128Z,103299.16
2024-01-12T02:28:03.011Z,103290.03
2024-01-12T02:28:35.525Z,103298.63
2024-01-12T02:29:07.300Z,103291.72
2024-01-12T02:29:39.422Z,103289.31
2024-01-12T02:30:11.988Z,103292.66
2024-01-12T02:30:44.219Z,103291.72
2024-01-12T02:31:16.782Z,103297.09
2024-01-12T02:31:49.592Z,103291.25
2024-01-12T02:32:21.489Z,103285.19
2024-01-12T02:32:53.267Z,103285.25
2024-01-12T02:33:25.007Z,103284.50
2024-01-12T02:33:56.745Z,103293.03
2024-01-12T02:34:28.468Z,103286.88
2024-01-12T02:35:00.101Z,103284.50
2024-01-12T02:35:31.767Z,103287.13
2024-01-12T02:36:03.487Z,103287.97
2024-01-12T02:36:35.034Z,103287.72
2024-01-12T02:37:06.641Z,103284.94
2024-01-12T02:37:38.222Z,103282.41
2024-01-12T02:38:09.795Z,103288.34
2024-01-12T02:38:41.509Z,103283.53
2024-01-12T02:39:13.263Z,103287.09
2024-01-12T02:39:45.103Z,103283.47
2024-01-12T02:40:16.698Z,103286.00
2024-01-12T02:40:48.261Z,103285.47
2024-01-12T02:41:20.009Z,103286.16
2024-01-12T02:41:51.860Z,103292.31
2024-01-12T02:42:23.621Z,103289.25
2024-01-12T02:42:55.195Z,103288.47
2024-01-12T02:43:26.765Z,103287.72
2024-01-12T02:43:58.345Z,103288.81
2024-01-12T02:44:29.939Z,103280.34
2024-01-12T02:45:01.615Z,103285.75
2024-01-12T02:45:33.275Z,103288.38
2024-01-12T02:46:04.874Z,103287.59
2024-01-12T02:46:36.916Z,103288.81
2024-01-12T02:47:09.441Z,103288.63
2024-01-12T02:47:41.106Z,103285.59
2024-01-12T02:48:12.897Z,103292.66
2024-01-12T02:48:44.734Z,103289.72
2024-01-12T02:49:16.386Z,103289.66
2024-01-12T02:49:47.984Z,103292.56
2024-01-12T02:50:19.971Z,103305.56
2024-01-12T02:50:51.778Z,103292.41
2024-01-12T02:51:23.462Z,103292.41
2024-01-12T02:51:55.252Z,103293.25
2024-01-12T02:52:26.878Z,103295.88
2024-01-12T02:52:58.461Z,103293.94
2024-01-12T02:53:30.159Z,103291.22
2024-01-12T02:54:01.777Z,103296.28
2024-01-12T02:54:35.830Z,103292.06
2024-01-12T02:55:07.719Z,103295.63
2024-01-12T02:55:39.375Z,103293.84
2024-01-12T02:56:11.507Z,103294.59
2024-01-12T02:56:43.183Z,103295.94
2024-01-12T02:57:15.173Z,103289.94
2024-01-12T02:57:46.971Z,103291.63
2024-01-12T02:58:18.590Z,103293.41
2024-01-12T02:58:50.189Z,103289.94
2024-01-12T02:59:21.934Z,103285.78
2024-01-12T02:59:53.749Z,103286.63
2024-01-12T03:00:25.882Z,103289.31
2024-01-12T03:00:57.571Z,103282.19
2024-01-12T03:01:29.305Z,103283.13
2024-01-12T03:02:01.152Z,103286.50
2024-01-12T03:02:35.853Z,103277.88
2024-01-12T03:03:07.813Z,103276.88
2024-01-12T03:03:39.508Z,103275.78
2024-01-12T03:04:11.188Z,103277.72
2024-01-12T03:04:42.866Z,103281.25
2024-01-12T03:05:14.621Z,103281.25
2024-01-12T03:05:46.820Z,103283.78
2024-01-12T03:06:18.690Z,103279.41
2024-01-12T03:06:50.433Z,103285.25
2024-01-12T03:07:22.030Z,103282.09
2024-01-12T03:07:53.740Z,103273.41
2024-01-12T03:08:25.316Z,103286.69
2024-01-12T03:08:57.041Z,103282.47
2024-01-12T03:09:28.662Z,103277.56
2024-01-12T03:10:00.909Z,103280.41
2024-01-12T03:10:32.626Z,103273.09
2024-01-12T03:11:04.926Z,103282.63
2024-01-12T03:11:37.055Z,103273.34
2024-01-12T03:12:08.836Z,103277.56
2024-01-12T03:12:40.452Z,103273.69
2024-01-12T03:13:12.050Z,103277.06
2024-01-12T03:13:43.632Z,103270.47
2024-01-12T03:14:15.200Z,103274.78
2024-01-12T03:14:46.887Z,103270.38
2024-01-12T03:15:18.493Z,103272.06
2024-01-12T03:15:50.150Z,103274.69
2024-01-12T03:16:22.555Z,103272.00
2024-01-12T03:16:54.160Z,103277.22
2024-01-12T03:17:26.438Z,103276.53
2024-01-12T03:17:58.447Z,103274.59
2024-01-12T03:18:31.480Z,103264.22
2024-01-12T03:19:03.399Z,103272.16
2024-01-12T03:19:35.151Z,103264.22
2024-01-12T03:20:08.199Z,103266.00
2024-01-12T03:20:39.849Z,103272.84
2024-01-12T03:21:11.566Z,103269.22
2024-01-12T03:21:43.145Z,103273.44
2024-01-12T03:22:14.742Z,103270.97
2024-01-12T03:22:46.446Z,103267.84
2024-01-12T03:23:18.024Z,103265.25
2024-01-12T03:23:49.837Z,103259.50
2024-01-12T03:24:21.522Z,103260.69
2024-01-12T03:24:53.104Z,103263.97
2024-01-12T03:25:24.782Z,103267.53
2024-01-12T03:25:56.425Z,103267.34
2024-01-12T03:26:28.051Z,103263.72
2024-01-12T03:26:59.728Z,103264.56
2024-01-12T03:27:33.374Z,103270.66
2024-01-12T03:28:05.404Z,103259.50
2024-01-12T03:28:36.980Z,103263.06
2024-01-12T03:29:08.521Z,103266.59
2024-01-12T03:29:40.276Z,103269.97
2024-01-12T03:30:12.236Z,103266.59
2024-01-12T03:30:44.224Z,103267.28
2024-01-12T03:31:18.546Z,103275.19
2024-01-12T03:31:51.052Z,103272.84
2024-01-12T03:32:22.967Z,103273.84
2024-01-12T03:32:55.143Z,103277.38
2024-01-12T03:33:26.969Z,103274.00
2024-01-12T03:33:58.688Z,103276.88
2024-01-12T03:34:30.415Z,103270.81
2024-01-12T03:35:02.424Z,103268.78
2024-01-12T03:35:36.229Z,103267.53
2024-01-12T03:36:08.691Z,103273.84
2024-01-12T03:36:40.311Z,103277.38
2024-01-12T03:37:11.989Z,103277.56
2024-01-12T03:37:43.544Z,103281.78
2024-01-12T03:38:15.336Z,103280.69
2024-01-12T03:38:47.136Z,103280.00
2024-01-12T03:39:18.805Z,103278.06
2024-01-12T03:39:50.459Z,103286.75
2024-01-12T03:40:22.114Z,103281.44
2024-01-12T03:40:53.704Z,103276.72
2024-01-12T03:41:25.440Z,103276.53
2024-01-12T03:41:57.173Z,103276.53
2024-01-12T03:42:28.812Z,103270.63
2024-01-12T03:43:00.416Z,103279.25
2024-01-12T03:43:32.037Z,103270.81
2024-01-12T03:44:03.740Z,103267.56
2024-01-12T03:44:35.714Z,103276.03
2024-01-12T03:45:08.072Z,103282.47
2024-01-12T03:45:39.703Z,103272.00
2024-01-12T03:46:11.373Z,103273.84
2024-01-12T03:46:42.924Z,103277.13
2024-01-12T03:47:14.603Z,103277.97
2024-01-12T03:47:46.725Z,103272.41
2024-01-12T03:48:19.364Z,103284.03
2024-01-12T03:48:51.097Z,103278.97
2024-01-12T03:49:25.862Z,103276.56
2024-01-12T03:49:57.587Z,103274.09
2024-01-12T03:50:29.160Z,103276.72
2024-01-12T03:51:00.896Z,103274.03
2024-01-12T03:51:32.561Z,103276.72
2024-01-12T03:52:14.917Z,103275.88
2024-01-12T03:52:47.907Z,103266.59
2024-01-12T03:53:19.541Z,103274.34
2024-01-12T03:53:51.206Z,103270.22
2024-01-12T03:54:23.060Z,103268.38
2024-01-12T03:54:54.901Z,103262.13
2024-01-12T03:55:26.485Z,103264.56
2024-01-12T03:55:58.113Z,103267.78
2024-01-12T03:56:29.701Z,103268.28
2024-01-12T03:57:01.400Z,103261.19
2024-01-12T03:57:33.032Z,103266.09
2024-01-12T03:58:05.280Z,103261.78
2024-01-12T03:58:40.127Z,103269.81
2024-01-12T03:59:12.460Z,103264.75
2024-01-12T03:59:44.247Z,103265.34
2024-01-12T04:00:17.048Z,103264.25
2024-01-12T04:00:49.077Z,103262.03
2024-01-12T04:01:23.098Z,103264.41
2024-01-12T04:01:55.005Z,103266.09
2024-01-12T04:02:26.718Z,103265.13
2024-01-12T04:02:58.471Z,103259.72
2024-01-12T04:03:30.068Z,103266.84
2024-01-12T04:04:01.724Z,103267.94
2024-01-12T04:04:33.605Z,103259.16
2024-01-12T04:05:05.938Z,103268.44
2024-01-12T04:05:37.817Z,103265.50
2024-01-12T04:06:10.636Z,103267.66
2024-01-12T04:06:42.522Z,103264.25
2024-01-12T04:07:14.156Z,103271.31
2024-01-12T04:07:45.745Z,103259.72
2024-01-12T04:08:17.322Z,103270.00
2024-01-12T04:08:48.954Z,103272.38
2024-01-12T04:09:20.538Z,103279.38
2024-01-12T04:09:52.339Z,103267.66
2024-01-12T04:10:24.039Z,103272.09
2024-01-12T04:10:55.655Z,103266.09
2024-01-12T04:11:27.589Z,103260.00
2024-01-12T04:11:59.301Z,103268.13
2024-01-12T04:12:30.873Z,103267.28
2024-01-12T04:13:02.681Z,103265.00
2024-01-12T04:13:34.384Z,103256.47
2024-01-12T04:14:06.401Z,103257.97
2024-01-12T04:14:38.067Z,103261.28
2024-01-12T04:15:12.884Z,103257.66
2024-01-12T04:15:44.837Z,103257.66
2024-01-12T04:16:16.478Z,103251.56
2024-01-12T04:16:48.035Z,103250.56
2024-01-12T04:17:19.703Z,103254.88
2024-01-12T04:17:51.374Z,103250.25
2024-01-12T04:18:24.852Z,103248.72
2024-01-12T04:18:57.053Z,103246.34
2024-01-12T04:19:28.755Z,103245.03
2024-01-12T04:20:00.316Z,103245.50
2024-01-12T04:20:31.899Z,103243.06
2024-01-12T04:21:05.106Z,103236.72
2024-01-12T04:21:36.814Z,103242.72
2024-01-12T04:22:08.417Z,103240.84
2024-01-12T04:22:40.246Z,103237.09
2024-01-12T04:23:11.925Z,103234.69
2024-01-12T04:23:43.675Z,103240.84
2024-01-12T04:24:15.247Z,103240.09
2024-01-12T04:24:46.868Z,103240.44
2024-01-12T04:25:18.437Z,103240.25
2024-01-12T04:25:50.090Z,103240.25
2024-01-12T04:26:21.926Z,103243.31
2024-01-12T04:26:53.836Z,103236.75
2024-01-12T04:27:26.396Z,103249.31
2024-01-12T04:27:58.038Z,103246.72
2024-01-12T04:28:29.623Z,103238.06
2024-01-12T04:29:01.184Z,103241.56
2024-01-12T04:29:32.789Z,103241.69
2024-01-12T04:30:05.081Z,103238.06
2024-01-12T04:30:36.730Z,103240.56
2024-01-12T04:31:08.442Z,103235.03
2024-01-12T04:31:41.616Z,103234.69
2024-01-12T04:32:13.624Z,103235.09
2024-01-12T04:32:45.422Z,103225.63
2024-01-12T04:33:17.627Z,103225.78
2024-01-12T04:33:49.427Z,103226.72
2024-01-12T04:34:21.169Z,103232.97
2024-01-12T04:34:53.116Z,103232.78
2024-01-12T04:35:24.745Z,103231.66
2024-01-12T04:35:56.678Z,103235.09
2024-01-12T04:36:28.376Z,103234.84
2024-01-12T04:36:59.959Z,103233.69
2024-01-12T04:37:31.528Z,103234.53
2024-01-12T04:38:03.294Z,103237.91
2024-01-12T04:38:34.881Z,103234.44
2024-01-12T04:39:06.751Z,103232.84
2024-01-12T04:39:41.208Z,103233.50
2024-01-12T04:40:12.933Z,103226.44
2024-01-12T04:40:44.564Z,103231.50
2024-01-12T04:41:16.243Z,103227.69
2024-01-12T04:41:47.894Z,103231.50
2024-01-12T04:42:19.522Z,103226.75
2024-01-12T04:42:51.194Z,103224.16
2024-01-12T04:43:22.848Z,103225.84
2024-01-12T04:43:54.600Z,103220.78
2024-01-12T04:44:26.255Z,103223.38
2024-01-12T04:44:57.943Z,103219.84
2024-01-12T04:45:29.558Z,103222.78
2024-01-12T04:46:01.152Z,103215.13
2024-01-12T04:46:32.723Z,103226.94
2024-01-12T04:47:04.629Z,103226.94
2024-01-12T04:47:36.456Z,103218.84
2024-01-12T04:48:08.190Z,103224.47
2024-01-12T04:48:40.178Z,103224.31
2024-01-12T04:49:12.017Z,103232.00
2024-01-12T04:49:43.739Z,103229.38
2024-01-12T04:50:16.078Z,103235.53
2024-01-12T04:50:47.761Z,103229.53
2024-01-12T04:51:21.002Z,103242.13
2024-01-12T04:51:52.752Z,103232.34
2024-01-12T04:52:24.313Z,103233.34
2024-01-12T04:52:55.945Z,103229.03
2024-01-12T04:53:27.819Z,103234.03
2024-01-12T04:54:00.161Z,103226.59
2024-01-12T04:54:31.894Z,103227.88
2024-01-12T04:55:03.738Z,103236.31
2024-01-12T04:55:35.394Z,103231.31
2024-01-12T04:56:07.002Z,103229.63
2024-01-12T04:56:38.607Z,103227.94
2024-01-12T04:57:10.260Z,103228.97
2024-01-12T04:57:41.924Z,103233.00
2024-01-12T04:58:13.490Z,103234.69
2024-01-12T04:58:45.563Z,103235.03
2024-01-12T04:59:17.225Z,103236.88
2024-01-12T04:59:48.963Z,103235.63
2024-01-12T05:00:20.882Z,103231.09
2024-01-12T05:00:52.690Z,103243.63
2024-01-12T05:01:24.477Z,103237.41
2024-01-12T05:01:56.117Z,103238.25
2024-01-12T05:02:27.933Z,103236.72
2024-01-12T05:02:59.702Z,103240.00
2024-01-12T05:03:31.559Z,103236.56
2024-01-12T05:04:03.307Z,103237.47
2024-01-12T05:04:34.947Z,103236.47
2024-01-12T05:05:06.773Z,103229.47
2024-01-12T05:05:38.438Z,103233.00
2024-01-12T05:06:10.947Z,103242.47
2024-01-12T05:06:42.658Z,103237.41
2024-01-12T05:07:14.501Z,103239.09
2024-01-12T05:07:46.154Z,103242.88
2024-01-12T05:08:17.780Z,103240.94
2024-01-12T05:08:49.448Z,103241.97
2024-01-12T05:09:21.009Z,103243.63
2024-01-12T05:09:52.560Z,103243.91
2024-01-12T05:10:24.165Z,103240.84
2024-01-12T05:10:55.987Z,103235.53
2024-01-12T05:11:27.907Z,103236.25
2024-01-12T05:12:04.429Z,103241.47
2024-01-12T05:12:36.470Z,103239.63
2024-01-12T05:13:08.033Z,103240.38
2024-01-12T05:13:39.629Z,103238.06
2024-01-12T05:14:11.201Z,103229.97
2024-01-12T05:14:43.841Z,103238.91
2024-01-12T05:15:17.221Z,103233.94
2024-01-12T05:15:48.875Z,103230.31
2024-01-12T05:16:20.536Z,103234.69
2024-01-12T05:16:52.123Z,103234.78
2024-01-12T05:17:24.403Z,103224.69
2024-01-12T05:17:56.167Z,103234.03
2024-01-12T05:18:28.040Z,103237.94
2024-01-12T05:18:59.793Z,103238.69
2024-01-12T05:19:31.536Z,103238.94
2024-01-12T05:20:08.084Z,103231.00
2024-01-12T05:20:40.869Z,103239.63
2024-01-12T05:21:12.522Z,103241.22
2024-01-12T05:21:44.114Z,103238.06
2024-01-12T05:22:16.056Z,103238.94
2024-01-12T05:22:47.651Z,103236.91
2024-01-12T05:23:20.631Z,103236.06
2024-01-12T05:23:52.339Z,103238.69
2024-01-12T05:24:24.046Z,103232.69
2024-01-12T05:24:55.632Z,103241.63
2024-01-12T05:25:27.254Z,103240.69
2024-01-12T05:25:59.224Z,103246.78
2024-01-12T05:26:30.858Z,103241.78
2024-01-12T05:27:02.716Z,103236.38
2024-01-12T05:27:34.560Z,103247.03
2024-01-12T05:28:06.352Z,103238.06
2024-01-12T05:28:38.492Z,103238.06
2024-01-12T05:29:10.170Z,103233.00
2024-01-12T05:29:41.825Z,103236.72
2024-01-12T05:30:14.895Z,103245.31
2024-01-12T05:30:46.843Z,103240.09
2024-01-12T05:31:18.942Z,103243.47
2024-01-12T05:31:50.619Z,103250.09
2024-01-12T05:32:22.543Z,103245.03
2024-01-12T05:32:54.269Z,103244.84
2024-01-12T05:33:26.004Z,103251.69
2024-01-12T05:33:57.811Z,103248.41
2024-01-12T05:34:29.571Z,103246.38
2024-01-12T05:35:01.330Z,103250.75
2024-01-12T05:35:33.091Z,103247.63
2024-01-12T05:36:05.033Z,103251.41
2024-01-12T05:36:36.798Z,103254.03
2024-01-12T05:37:08.388Z,103248.72
2024-01-12T05:37:40.420Z,103252.25
2024-01-12T05:38:12.041Z,103258.16
2024-01-12T05:38:43.608Z,103253.78
2024-01-12T05:39:16.079Z,103250.81
2024-01-12T05:39:48.311Z,103250.25
2024-01-12T05:40:19.891Z,103246.63
2024-01-12T05:40:51.485Z,103247.78
2024-01-12T05:41:23.061Z,103252.41
2024-01-12T05:41:55.072Z,103257.47
2024-01-12T05:42:26.715Z,103255.78
2024-01-12T05:42:58.338Z,103256.56
2024-01-12T05:43:30.110Z,103254.03
2024-01-12T05:44:01.717Z,103253.25
2024-01-12T05:44:33.287Z,103251.56
2024-01-12T05:45:05.380Z,103262.72
2024-01-12T05:45:36.962Z,103251.94
2024-01-12T05:46:08.506Z,103253.47
2024-01-12T05:46:43.067Z,103253.47
2024-01-12T05:47:14.682Z,103253.63
2024-01-12T05:47:46.476Z,103252.88
2024-01-12T05:48:18.623Z,103250.09
2024-01-12T05:48:50.519Z,103244.69
2024-01-12T05:49:22.468Z,103253.47
2024-01-12T05:49:54.120Z,103251.59
2024-01-12T05:50:25.714Z,103249.75
2024-01-12T05:50:57.324Z,103252.28
2024-01-12T05:51:29.022Z,103262.06
2024-01-12T05:52:00.582Z,103258.69
2024-01-12T05:52:33.334Z,103256.25
2024-01-12T05:53:06.645Z,103245.03
2024-01-12T05:53:38.330Z,103255.63
2024-01-12T05:54:10.050Z,103254.66
2024-01-12T05:54:41.711Z,103253.94
2024-01-12T05:55:13.262Z,103254.66
2024-01-12T05:55:45.190Z,103252.69
2024-01-12T05:56:17.083Z,103251.94
2024-01-12T05:56:48.798Z,103252.63
2024-01-12T05:57:20.382Z,103250.75
2024-01-12T05:57:52.323Z,103256.66
2024-01-12T05:58:23.903Z,103249.56
2024-01-12T05:58:55.509Z,103250.41
2024-01-12T05:59:27.120Z,103251.34
2024-01-12T05:59:58.899Z,103247.72
2024-01-12T06:00:30.553Z,103247.72
2024-01-12T06:01:02.125Z,103255.66
2024-01-12T06:01:33.731Z,103253.78
2024-01-12T06:02:05.486Z,103254.63
2024-01-12T06:02:37.141Z,103254.47
2024-01-12T06:03:08.839Z,103253.78
2024-01-12T06:03:40.472Z,103243.75
2024-01-12T06:04:12.261Z,103246.72
2024-01-12T06:04:43.945Z,103249.91
2024-01-12T06:05:15.698Z,103245.53
2024-01-12T06:05:49.897Z,103249.91
2024-01-12T06:06:21.713Z,103250.25
2024-01-12T06:06:53.954Z,103250.25
2024-01-12T06:07:25.545Z,103246.00
2024-01-12T06:07:57.223Z,103243.38
2024-01-12T06:08:28.877Z,103239.94
2024-01-12T06:09:00.565Z,103247.63
2024-01-12T06:09:32.325Z,103252.94
2024-01-12T06:10:06.063Z,103247.56
2024-01-12T06:10:37.880Z,103245.91
2024-01-12T06:11:09.546Z,103246.84
2024-01-12T06:11:44.631Z,103247.69
2024-01-12T06:12:16.608Z,103251.78
2024-01-12T06:12:48.200Z,103244.69
2024-01-12T06:13:20.084Z,103249.84
2024-01-12T06:13:51.682Z,103251.59
2024-01-12T06:14:23.332Z,103244.69
2024-01-12T06:14:54.936Z,103249.91
2024-01-12T06:15:26.590Z,103246.53
2024-01-12T06:15:58.202Z,103246.38
2024-01-12T06:16:29.825Z,103247.13
2024-01-12T06:17:01.415Z,103242.47
2024-01-12T06:17:33.140Z,103239.09
2024-01-12T06:18:05.423Z,103248.47
2024-01-12T06:18:38.484Z,103251.25
2024-01-12T06:19:10.369Z,103240.78
2024-01-12T06:19:42.154Z,103239.09
2024-01-12T06:20:13.759Z,103241.38
2024-01-12T06:20:45.413Z,103239.53
2024-01-12T06:21:17.045Z,103236.72
2024-01-12T06:21:48.697Z,103242.91
2024-01-12T06:22:20.240Z,103243.84
2024-01-12T06:22:52.028Z,103243.84
2024-01-12T06:23:23.698Z,103244.34
2024-01-12T06:23:55.416Z,103241.63
2024-01-12T06:24:27.086Z,103245.88
2024-01-12T06:24:58.688Z,103234.97
2024-01-12T06:25:31.029Z,103237.75
2024-01-12T06:26:03.230Z,103232.53
2024-01-12T06:26:34.873Z,103233.88
2024-01-12T06:27:06.544Z,103229.22
2024-01-12T06:27:38.320Z,103232.44
2024-01-12T06:28:09.983Z,103225.59
2024-01-12T06:28:41.535Z,103225.50
2024-01-12T06:29:13.110Z,103229.97
2024-01-12T06:29:44.750Z,103229.63
2024-01-12T06:30:17.039Z,103229.81
2024-01-12T06:30:48.739Z,103231.31
2024-01-12T06:31:20.461Z,103233.34
2024-01-12T06:31:52.177Z,103226.88
2024-01-12T06:32:23.870Z,103227.28
2024-01-12T06:32:55.637Z,103233.69
2024-01-12T06:33:27.508Z,103230.66
2024-01-12T06:33:59.218Z,103233.88
2024-01-12T06:34:30.852Z,103237.09
2024-01-12T06:35:02.487Z,103233.69
2024-01-12T06:35:34.127Z,103239.03
2024-01-12T06:36:06.273Z,103242.31
2024-01-12T06:36:45.807Z,103236.91
2024-01-12T06:37:17.403Z,103239.69
2024-01-12T06:37:48.973Z,103235.06
2024-01-12T06:38:20.657Z,103242.16
2024-01-12T06:38:56.169Z,103232.53
2024-01-12T06:39:28.328Z,103229.16
2024-01-12T06:40:00.835Z,103236.06
2024-01-12T06:40:32.755Z,103230.00
2024-01-12T06:41:04.688Z,103227.47
2024-01-12T06:41:43.166Z,103224.09
2024-01-12T06:42:14.798Z,103231.44
2024-01-12T06:42:46.469Z,103222.41
2024-01-12T06:43:19.131Z,103223.06
2024-01-12T06:43:50.855Z,103221.22
2024-01-12T06:44:22.512Z,103224.75
2024-01-12T06:44:54.136Z,103223.91
2024-01-12T06:45:25.737Z,103223.41
2024-01-12T06:45:57.370Z,103227.78
2024-01-12T06:46:28.927Z,103231.00
2024-01-12T06:47:00.697Z,103222.06
2024-01-12T06:47:32.416Z,103229.16
2024-01-12T06:48:04.294Z,103224.59
2024-01-12T06:48:36.181Z,103217.94
2024-01-12T06:49:07.805Z,103223.25
2024-01-12T06:49:46.442Z,103223.25
2024-01-12T06:50:18.110Z,103223.75
2024-01-12T06:50:49.929Z,103217.00
2024-01-12T06:51:24.541Z,103225.34
2024-01-12T06:51:56.139Z,103218.19
2024-01-12T06:52:27.860Z,103214.03
2024-01-12T06:53:01.358Z,103212.25
2024-01-12T06:53:33.071Z,103215.03
2024-01-12T06:54:04.910Z,103216.91
2024-01-12T06:54:36.511Z,103214.28
2024-01-12T06:55:08.632Z,103215.22
2024-01-12T06:55:40.262Z,103214.53
2024-01-12T06:56:19.825Z,103216.13
2024-01-12T06:56:53.983Z,103219.50
2024-01-12T06:57:25.617Z,103216.91
2024-01-12T06:57:57.142Z,103209.81
2024-01-12T06:58:29.097Z,103216.13
2024-01-12T06:59:00.700Z,103220.44
2024-01-12T06:59:32.898Z,103216.22
2024-01-12T07:00:07.498Z,103215.13
2024-01-12T07:00:39.227Z,103213.34
2024-01-12T07:01:11.062Z,103224.75
2024-01-12T07:01:42.758Z,103218.34
2024-01-12T07:02:15.660Z,103221.81
2024-01-12T07:02:47.547Z,103217.34
2024-01-12T07:03:19.254Z,103218.00
2024-01-12T07:03:52.656Z,103215.78
2024-01-12T07:04:24.348Z,103214.72
2024-01-12T07:04:55.971Z,103208.56
2024-01-12T07:05:27.729Z,103218.00
2024-01-12T07:06:01.552Z,103211.25
2024-01-12T07:06:33.674Z,103213.28
2024-01-12T07:07:05.900Z,103221.91
2024-01-12T07:07:37.568Z,103216.56
2024-01-12T07:08:09.363Z,103216.66
2024-01-12T07:08:40.955Z,103212.78
2024-01-12T07:09:14.193Z,103211.94
2024-01-12T07:09:47.008Z,103207.38
2024-01-12T07:10:19.002Z,103211.75
2024-01-12T07:10:50.659Z,103218.84
2024-01-12T07:11:22.739Z,103213.53
2024-01-12T07:11:54.975Z,103215.56
2024-01-12T07:12:27.262Z,103213.78
2024-01-12T07:12:58.906Z,103211.00
2024-01-12T07:13:30.462Z,103211.09
2024-01-12T07:14:02.081Z,103213.13
2024-01-12T07:14:33.714Z,103205.25
2024-01-12T07:15:07.274Z,103209.41
2024-01-12T07:15:38.863Z,103212.94
2024-01-12T07:16:10.435Z,103211.09
2024-01-12T07:16:42.189Z,103211.66
2024-01-12T07:17:13.785Z,103213.94
2024-01-12T07:17:47.583Z,103208.13
2024-01-12T07:18:19.427Z,103216.16
2024-01-12T07:18:51.453Z,103211.84
2024-01-12T07:19:23.344Z,103204.84
2024-01-12T07:19:55.072Z,103207.00
2024-01-12T07:20:26.724Z,103215.78
2024-01-12T07:21:04.281Z,103210.06
2024-01-12T07:21:36.461Z,103210.72
2024-01-12T07:22:08.066Z,103206.25
2024-01-12T07:22:39.739Z,103214.94
2024-01-12T07:23:11.297Z,103210.72
2024-01-12T07:23:42.911Z,103208.72
2024-01-12T07:24:14.857Z,103202.81
2024-01-12T07:24:46.532Z,103210.09
2024-01-12T07:25:18.586Z,103201.44
2024-01-12T07:25:50.204Z,103203.66
2024-01-12T07:26:22.015Z,103200.38
2024-01-12T07:26:53.750Z,103209.56
2024-01-12T07:27:25.578Z,103201.53
2024-01-12T07:27:57.208Z,103206.03
2024-01-12T07:28:28.878Z,103205.25
2024-01-12T07:29:02.124Z,103204.34
2024-01-12T07:29:34.244Z,103200.78
2024-01-12T07:30:06.935Z,103204.34
2024-01-12T07:30:38.762Z,103199.84
2024-01-12T07:31:10.530Z,103205.00
2024-01-12T07:31:42.229Z,103206.94
2024-01-12T07:32:14.061Z,103209.41
2024-01-12T07:32:45.946Z,103208.47
2024-01-12T07:33:18.013Z,103203.22
2024-01-12T07:33:49.768Z,103210.16
2024-01-12T07:34:21.515Z,103209.22
2024-01-12T07:34:53.260Z,103216.13
2024-01-12T07:35:25.104Z,103207.38
2024-01-12T07:35:56.932Z,103217.16
2024-01-12T07:36:28.778Z,103216.13
2024-01-12T07:37:02.003Z,103216.13
2024-01-12T07:37:33.602Z,103221.22